sensor_id;sensor_type;location;lat;lon;timestamp;P1;durP1;ratioP1;P2;durP2;ratioP2
64157;SDS011;50449;51.528;5.076;2023-05-24T00:01:02;56.03;;;53.05;;
64157;SDS011;50449;51.528;5.076;2023-05-24T00:03:28;57.45;;;54.28;;
64157;SDS011;50449;51.528;5.076;2023-05-24T00:05:58;54.33;;;51.72;;
64157;SDS011;50449;51.528;5.076;2023-05-24T00:08:27;54.25;;;51.03;;
64157;SDS011;50449;51.528;5.076;2023-05-24T00:10:53;55.65;;;52.63;;
64157;SDS011;50449;51.528;5.076;2023-05-24T00:13:18;57.70;;;54.60;;
64157;SDS011;50449;51.528;5.076;2023-05-24T00:15:44;57.10;;;53.25;;
64157;SDS011;50449;51.528;5.076;2023-05-24T00:18:09;54.22;;;51.03;;
64157;SDS011;50449;51.528;5.076;2023-05-24T00:20:35;54.38;;;51.80;;
64157;SDS011;50449;51.528;5.076;2023-05-24T00:23:00;54.90;;;52.15;;
64157;SDS011;50449;51.528;5.076;2023-05-24T00:25:26;54.20;;;51.38;;
64157;SDS011;50449;51.528;5.076;2023-05-24T00:27:51;57.17;;;54.15;;
64157;SDS011;50449;51.528;5.076;2023-05-24T00:30:17;54.97;;;51.88;;
64157;SDS011;50449;51.528;5.076;2023-05-24T00:32:42;58.13;;;54.72;;
64157;SDS011;50449;51.528;5.076;2023-05-24T00:35:08;53.88;;;51.15;;
64157;SDS011;50449;51.528;5.076;2023-05-24T00:37:33;54.90;;;51.88;;
64157;SDS011;50449;51.528;5.076;2023-05-24T00:39:59;52.97;;;50.25;;
64157;SDS011;50449;51.528;5.076;2023-05-24T00:42:24;53.95;;;51.15;;
64157;SDS011;50449;51.528;5.076;2023-05-24T00:44:49;55.20;;;52.28;;
64157;SDS011;50449;51.528;5.076;2023-05-24T00:47:15;52.78;;;49.83;;
64157;SDS011;50449;51.528;5.076;2023-05-24T00:49:41;56.80;;;53.33;;
64157;SDS011;50449;51.528;5.076;2023-05-24T00:52:06;54.20;;;51.33;;
64157;SDS011;50449;51.528;5.076;2023-05-24T00:54:33;52.70;;;49.92;;
64157;SDS011;50449;51.528;5.076;2023-05-24T00:56:58;53.30;;;50.50;;
64157;SDS011;50449;51.528;5.076;2023-05-24T00:59:25;53.53;;;50.67;;
64157;SDS011;50449;51.528;5.076;2023-05-24T01:01:51;54.70;;;51.80;;
64157;SDS011;50449;51.528;5.076;2023-05-24T01:04:16;54.33;;;51.15;;
64157;SDS011;50449;51.528;5.076;2023-05-24T01:06:53;53.00;;;50.05;;
64157;SDS011;50449;51.528;5.076;2023-05-24T01:09:29;50.97;;;48.47;;
64157;SDS011;50449;51.528;5.076;2023-05-24T01:12:30;52.08;;;48.72;;
64157;SDS011;50449;51.528;5.076;2023-05-24T01:15:07;51.22;;;48.25;;
64157;SDS011;50449;51.528;5.076;2023-05-24T01:20:32;51.67;;;48.67;;
64157;SDS011;50449;51.528;5.076;2023-05-24T01:28:41;51.63;;;48.60;;
64157;SDS011;50449;51.528;5.076;2023-05-24T01:31:08;51.95;;;49.00;;
64157;SDS011;50449;51.528;5.076;2023-05-24T01:33:38;50.05;;;47.45;;
64157;SDS011;50449;51.528;5.076;2023-05-24T01:36:05;49.70;;;46.80;;
64157;SDS011;50449;51.528;5.076;2023-05-24T01:38:31;51.38;;;48.22;;
64157;SDS011;50449;51.528;5.076;2023-05-24T01:40:58;53.45;;;49.97;;
64157;SDS011;50449;51.528;5.076;2023-05-24T01:43:32;51.30;;;48.67;;
64157;SDS011;50449;51.528;5.076;2023-05-24T01:46:16;50.65;;;47.85;;
64157;SDS011;50449;51.528;5.076;2023-05-24T01:49:05;51.75;;;49.03;;
64157;SDS011;50449;51.528;5.076;2023-05-24T01:51:59;50.17;;;47.38;;
64157;SDS011;50449;51.528;5.076;2023-05-24T01:54:24;48.55;;;46.25;;
64157;SDS011;50449;51.528;5.076;2023-05-24T01:56:52;50.45;;;47.72;;
64157;SDS011;50449;51.528;5.076;2023-05-24T01:59:19;49.40;;;46.85;;
64157;SDS011;50449;51.528;5.076;2023-05-24T02:01:47;50.33;;;47.03;;
64157;SDS011;50449;51.528;5.076;2023-05-24T02:04:13;49.05;;;46.47;;
64157;SDS011;50449;51.528;5.076;2023-05-24T02:06:38;49.13;;;46.72;;
64157;SDS011;50449;51.528;5.076;2023-05-24T02:09:04;49.20;;;46.50;;
64157;SDS011;50449;51.528;5.076;2023-05-24T02:11:29;49.05;;;46.35;;
64157;SDS011;50449;51.528;5.076;2023-05-24T02:13:55;50.95;;;47.95;;
64157;SDS011;50449;51.528;5.076;2023-05-24T02:16:20;50.30;;;47.40;;
64157;SDS011;50449;51.528;5.076;2023-05-24T02:18:47;49.13;;;46.65;;
64157;SDS011;50449;51.528;5.076;2023-05-24T02:21:14;51.75;;;48.17;;
64157;SDS011;50449;51.528;5.076;2023-05-24T02:23:40;47.67;;;45.28;;
64157;SDS011;50449;51.528;5.076;2023-05-24T02:26:05;50.78;;;47.88;;
64157;SDS011;50449;51.528;5.076;2023-05-24T02:28:31;48.55;;;45.70;;
64157;SDS011;50449;51.528;5.076;2023-05-24T02:30:57;51.88;;;48.88;;
64157;SDS011;50449;51.528;5.076;2023-05-24T02:33:22;48.92;;;46.08;;
64157;SDS011;50449;51.528;5.076;2023-05-24T02:35:50;49.67;;;46.47;;
64157;SDS011;50449;51.528;5.076;2023-05-24T02:38:16;51.97;;;49.10;;
64157;SDS011;50449;51.528;5.076;2023-05-24T02:40:41;46.80;;;44.20;;
64157;SDS011;50449;51.528;5.076;2023-05-24T02:43:06;47.00;;;44.50;;
64157;SDS011;50449;51.528;5.076;2023-05-24T02:45:33;49.88;;;46.30;;
64157;SDS011;50449;51.528;5.076;2023-05-24T02:48:00;47.30;;;44.17;;
64157;SDS011;50449;51.528;5.076;2023-05-24T02:50:26;47.63;;;44.63;;
64157;SDS011;50449;51.528;5.076;2023-05-24T02:52:51;47.35;;;44.85;;
64157;SDS011;50449;51.528;5.076;2023-05-24T02:55:16;48.45;;;45.80;;
64157;SDS011;50449;51.528;5.076;2023-05-24T02:57:42;47.35;;;44.63;;
64157;SDS011;50449;51.528;5.076;2023-05-24T03:00:07;46.30;;;44.10;;
64157;SDS011;50449;51.528;5.076;2023-05-24T03:02:35;46.13;;;43.83;;
64157;SDS011;50449;51.528;5.076;2023-05-24T03:05:02;48.15;;;45.25;;
64157;SDS011;50449;51.528;5.076;2023-05-24T03:07:28;47.03;;;44.70;;
64157;SDS011;50449;51.528;5.076;2023-05-24T03:09:53;47.38;;;44.78;;
64157;SDS011;50449;51.528;5.076;2023-05-24T03:12:19;47.13;;;43.95;;
64157;SDS011;50449;51.528;5.076;2023-05-24T03:14:44;50.17;;;47.00;;
64157;SDS011;50449;51.528;5.076;2023-05-24T03:17:09;46.50;;;43.70;;
64157;SDS011;50449;51.528;5.076;2023-05-24T03:19:35;46.28;;;43.85;;
64157;SDS011;50449;51.528;5.076;2023-05-24T03:22:01;46.83;;;44.05;;
64157;SDS011;50449;51.528;5.076;2023-05-24T03:24:27;48.47;;;45.25;;
64157;SDS011;50449;51.528;5.076;2023-05-24T03:26:52;47.83;;;44.90;;
64157;SDS011;50449;51.528;5.076;2023-05-24T03:29:18;46.95;;;44.35;;
64157;SDS011;50449;51.528;5.076;2023-05-24T03:31:43;45.83;;;42.88;;
64157;SDS011;50449;51.528;5.076;2023-05-24T03:34:09;47.53;;;44.45;;
64157;SDS011;50449;51.528;5.076;2023-05-24T03:36:34;45.28;;;42.70;;
64157;SDS011;50449;51.528;5.076;2023-05-24T03:39:00;47.17;;;44.58;;
64157;SDS011;50449;51.528;5.076;2023-05-24T03:41:28;46.23;;;43.00;;
64157;SDS011;50449;51.528;5.076;2023-05-24T03:43:53;46.45;;;43.42;;
64157;SDS011;50449;51.528;5.076;2023-05-24T03:46:19;48.40;;;45.13;;
64157;SDS011;50449;51.528;5.076;2023-05-24T03:48:44;44.38;;;42.08;;
64157;SDS011;50449;51.528;5.076;2023-05-24T03:51:10;46.50;;;43.90;;
64157;SDS011;50449;51.528;5.076;2023-05-24T03:53:35;45.60;;;42.97;;
64157;SDS011;50449;51.528;5.076;2023-05-24T03:56:01;45.92;;;43.28;;
64157;SDS011;50449;51.528;5.076;2023-05-24T03:58:26;45.90;;;43.35;;
64157;SDS011;50449;51.528;5.076;2023-05-24T04:00:51;44.80;;;42.25;;
64157;SDS011;50449;51.528;5.076;2023-05-24T04:03:17;46.13;;;42.70;;
64157;SDS011;50449;51.528;5.076;2023-05-24T04:05:45;43.92;;;41.67;;
64157;SDS011;50449;51.528;5.076;2023-05-24T04:08:11;46.63;;;44.00;;
64157;SDS011;50449;51.528;5.076;2023-05-24T04:10:38;45.72;;;42.83;;
64157;SDS011;50449;51.528;5.076;2023-05-24T04:13:03;45.92;;;43.25;;
64157;SDS011;50449;51.528;5.076;2023-05-24T04:15:29;45.03;;;42.53;;
64157;SDS011;50449;51.528;5.076;2023-05-24T04:17:55;45.60;;;42.88;;
64157;SDS011;50449;51.528;5.076;2023-05-24T04:20:20;45.20;;;42.58;;
64157;SDS011;50449;51.528;5.076;2023-05-24T04:22:51;43.47;;;40.78;;
64157;SDS011;50449;51.528;5.076;2023-05-24T04:25:17;44.00;;;41.50;;
64157;SDS011;50449;51.528;5.076;2023-05-24T04:27:43;43.50;;;40.85;;
64157;SDS011;50449;51.528;5.076;2023-05-24T04:30:09;43.42;;;41.00;;
64157;SDS011;50449;51.528;5.076;2023-05-24T04:32:35;43.13;;;40.83;;
64157;SDS011;50449;51.528;5.076;2023-05-24T04:35:01;46.00;;;42.80;;
64157;SDS011;50449;51.528;5.076;2023-05-24T04:37:28;44.83;;;42.13;;
64157;SDS011;50449;51.528;5.076;2023-05-24T04:39:55;44.38;;;41.97;;
64157;SDS011;50449;51.528;5.076;2023-05-24T04:42:21;44.88;;;42.08;;
64157;SDS011;50449;51.528;5.076;2023-05-24T04:44:46;43.50;;;40.35;;
64157;SDS011;50449;51.528;5.076;2023-05-24T04:47:12;44.33;;;41.35;;
64157;SDS011;50449;51.528;5.076;2023-05-24T04:49:38;42.63;;;40.33;;
64157;SDS011;50449;51.528;5.076;2023-05-24T04:52:03;46.20;;;43.47;;
64157;SDS011;50449;51.528;5.076;2023-05-24T04:54:30;44.03;;;41.72;;
64157;SDS011;50449;51.528;5.076;2023-05-24T04:56:55;44.40;;;41.15;;
64157;SDS011;50449;51.528;5.076;2023-05-24T04:59:21;43.67;;;41.40;;
64157;SDS011;50449;51.528;5.076;2023-05-24T05:01:46;43.75;;;40.92;;
64157;SDS011;50449;51.528;5.076;2023-05-24T05:04:12;43.15;;;40.60;;
64157;SDS011;50449;51.528;5.076;2023-05-24T05:06:37;43.00;;;40.00;;
64157;SDS011;50449;51.528;5.076;2023-05-24T05:09:07;44.60;;;41.67;;
64157;SDS011;50449;51.528;5.076;2023-05-24T05:11:33;45.10;;;42.28;;
64157;SDS011;50449;51.528;5.076;2023-05-24T05:13:59;43.30;;;40.47;;
64157;SDS011;50449;51.528;5.076;2023-05-24T05:16:25;44.03;;;41.67;;
64157;SDS011;50449;51.528;5.076;2023-05-24T05:18:50;43.50;;;40.50;;
64157;SDS011;50449;51.528;5.076;2023-05-24T05:21:16;43.15;;;40.63;;
64157;SDS011;50449;51.528;5.076;2023-05-24T05:23:42;43.65;;;41.13;;
64157;SDS011;50449;51.528;5.076;2023-05-24T05:26:07;42.80;;;40.17;;
64157;SDS011;50449;51.528;5.076;2023-05-24T05:28:33;44.05;;;41.47;;
64157;SDS011;50449;51.528;5.076;2023-05-24T05:30:58;43.78;;;41.03;;
64157;SDS011;50449;51.528;5.076;2023-05-24T05:33:24;45.00;;;41.75;;
64157;SDS011;50449;51.528;5.076;2023-05-24T05:35:49;44.83;;;41.95;;
64157;SDS011;50449;51.528;5.076;2023-05-24T05:38:15;43.85;;;40.58;;
64157;SDS011;50449;51.528;5.076;2023-05-24T05:40:40;42.17;;;39.65;;
64157;SDS011;50449;51.528;5.076;2023-05-24T05:43:06;42.92;;;40.63;;
64157;SDS011;50449;51.528;5.076;2023-05-24T05:45:33;42.75;;;39.53;;
64157;SDS011;50449;51.528;5.076;2023-05-24T05:47:58;43.70;;;41.15;;
64157;SDS011;50449;51.528;5.076;2023-05-24T05:50:24;44.45;;;41.85;;
64157;SDS011;50449;51.528;5.076;2023-05-24T05:52:49;42.95;;;40.40;;
64157;SDS011;50449;51.528;5.076;2023-05-24T05:55:15;46.00;;;43.08;;
64157;SDS011;50449;51.528;5.076;2023-05-24T05:57:40;44.20;;;41.28;;
64157;SDS011;50449;51.528;5.076;2023-05-24T06:00:06;44.50;;;41.72;;
64157;SDS011;50449;51.528;5.076;2023-05-24T06:02:32;41.45;;;39.35;;
64157;SDS011;50449;51.528;5.076;2023-05-24T06:04:57;43.70;;;40.40;;
64157;SDS011;50449;51.528;5.076;2023-05-24T06:07:22;41.55;;;39.40;;
64157;SDS011;50449;51.528;5.076;2023-05-24T06:09:48;41.95;;;39.75;;
64157;SDS011;50449;51.528;5.076;2023-05-24T06:12:13;43.05;;;40.17;;
64157;SDS011;50449;51.528;5.076;2023-05-24T06:14:39;44.90;;;41.60;;
64157;SDS011;50449;51.528;5.076;2023-05-24T06:17:04;43.55;;;40.85;;
64157;SDS011;50449;51.528;5.076;2023-05-24T06:19:30;45.00;;;41.95;;
64157;SDS011;50449;51.528;5.076;2023-05-24T06:21:57;43.55;;;41.22;;
64157;SDS011;50449;51.528;5.076;2023-05-24T06:24:22;42.85;;;40.65;;
64157;SDS011;50449;51.528;5.076;2023-05-24T06:26:49;45.35;;;42.15;;
64157;SDS011;50449;51.528;5.076;2023-05-24T06:29:16;44.42;;;41.35;;
64157;SDS011;50449;51.528;5.076;2023-05-24T06:31:46;45.17;;;40.83;;
64157;SDS011;50449;51.528;5.076;2023-05-24T06:34:12;43.25;;;40.85;;
64157;SDS011;50449;51.528;5.076;2023-05-24T06:36:41;43.53;;;41.22;;
64157;SDS011;50449;51.528;5.076;2023-05-24T06:39:07;43.40;;;40.58;;
64157;SDS011;50449;51.528;5.076;2023-05-24T06:41:34;44.55;;;41.75;;
64157;SDS011;50449;51.528;5.076;2023-05-24T06:44:00;39.78;;;37.88;;
64157;SDS011;50449;51.528;5.076;2023-05-24T06:46:25;45.03;;;41.60;;
64157;SDS011;50449;51.528;5.076;2023-05-24T06:48:51;43.65;;;41.40;;
64157;SDS011;50449;51.528;5.076;2023-05-24T06:51:16;43.97;;;41.20;;
64157;SDS011;50449;51.528;5.076;2023-05-24T06:53:42;43.25;;;40.63;;
64157;SDS011;50449;51.528;5.076;2023-05-24T06:56:07;42.70;;;40.20;;
64157;SDS011;50449;51.528;5.076;2023-05-24T06:58:34;44.05;;;41.67;;
64157;SDS011;50449;51.528;5.076;2023-05-24T07:01:00;44.42;;;41.88;;
64157;SDS011;50449;51.528;5.076;2023-05-24T07:03:26;46.47;;;43.33;;
64157;SDS011;50449;51.528;5.076;2023-05-24T07:05:52;42.70;;;40.40;;
64157;SDS011;50449;51.528;5.076;2023-05-24T07:08:17;45.65;;;42.78;;
64157;SDS011;50449;51.528;5.076;2023-05-24T07:10:43;44.70;;;42.35;;
64157;SDS011;50449;51.528;5.076;2023-05-24T07:13:09;46.15;;;43.05;;
64157;SDS011;50449;51.528;5.076;2023-05-24T07:15:38;43.10;;;40.75;;
64157;SDS011;50449;51.528;5.076;2023-05-24T07:18:05;44.00;;;41.20;;
64157;SDS011;50449;51.528;5.076;2023-05-24T07:20:31;44.65;;;41.90;;
64157;SDS011;50449;51.528;5.076;2023-05-24T07:22:56;44.88;;;41.58;;
64157;SDS011;50449;51.528;5.076;2023-05-24T07:25:22;44.65;;;41.85;;
64157;SDS011;50449;51.528;5.076;2023-05-24T07:27:48;43.38;;;40.97;;
64157;SDS011;50449;51.528;5.076;2023-05-24T07:30:15;45.60;;;42.63;;
64157;SDS011;50449;51.528;5.076;2023-05-24T07:32:41;45.15;;;42.45;;
64157;SDS011;50449;51.528;5.076;2023-05-24T07:35:06;45.10;;;41.75;;
64157;SDS011;50449;51.528;5.076;2023-05-24T07:37:32;45.30;;;42.72;;
64157;SDS011;50449;51.528;5.076;2023-05-24T07:39:57;44.50;;;41.92;;
64157;SDS011;50449;51.528;5.076;2023-05-24T07:42:23;49.10;;;45.85;;
64157;SDS011;50449;51.528;5.076;2023-05-24T07:44:49;49.20;;;45.53;;
64157;SDS011;50449;51.528;5.076;2023-05-24T07:47:14;46.60;;;43.13;;
64157;SDS011;50449;51.528;5.076;2023-05-24T07:49:40;45.65;;;42.80;;
64157;SDS011;50449;51.528;5.076;2023-05-24T07:52:06;44.53;;;42.33;;
64157;SDS011;50449;51.528;5.076;2023-05-24T07:54:31;49.35;;;46.45;;
64157;SDS011;50449;51.528;5.076;2023-05-24T07:56:57;46.00;;;43.30;;
64157;SDS011;50449;51.528;5.076;2023-05-24T07:59:22;46.80;;;43.95;;
64157;SDS011;50449;51.528;5.076;2023-05-24T08:01:48;44.33;;;41.85;;
64157;SDS011;50449;51.528;5.076;2023-05-24T08:04:13;45.00;;;42.40;;
64157;SDS011;50449;51.528;5.076;2023-05-24T08:06:40;45.05;;;42.75;;
64157;SDS011;50449;51.528;5.076;2023-05-24T08:09:05;44.70;;;42.60;;
64157;SDS011;50449;51.528;5.076;2023-05-24T08:11:32;47.53;;;44.83;;
64157;SDS011;50449;51.528;5.076;2023-05-24T08:13:57;46.10;;;43.35;;
64157;SDS011;50449;51.528;5.076;2023-05-24T08:16:23;47.75;;;45.40;;
64157;SDS011;50449;51.528;5.076;2023-05-24T08:18:48;46.33;;;44.03;;
64157;SDS011;50449;51.528;5.076;2023-05-24T08:21:14;50.30;;;47.30;;
64157;SDS011;50449;51.528;5.076;2023-05-24T08:23:39;48.95;;;45.35;;
64157;SDS011;50449;51.528;5.076;2023-05-24T08:26:05;50.83;;;47.88;;
64157;SDS011;50449;51.528;5.076;2023-05-24T08:28:30;50.85;;;48.35;;
64157;SDS011;50449;51.528;5.076;2023-05-24T08:30:56;48.15;;;45.58;;
64157;SDS011;50449;51.528;5.076;2023-05-24T08:33:22;51.53;;;48.17;;
64157;SDS011;50449;51.528;5.076;2023-05-24T08:35:49;51.58;;;48.67;;
64157;SDS011;50449;51.528;5.076;2023-05-24T08:38:15;48.83;;;45.95;;
64157;SDS011;50449;51.528;5.076;2023-05-24T08:40:41;51.30;;;48.53;;
64157;SDS011;50449;51.528;5.076;2023-05-24T08:43:06;51.70;;;48.35;;
64157;SDS011;50449;51.528;5.076;2023-05-24T08:45:36;53.10;;;49.72;;
64157;SDS011;50449;51.528;5.076;2023-05-24T08:48:06;53.15;;;49.45;;
64157;SDS011;50449;51.528;5.076;2023-05-24T08:50:33;53.88;;;50.28;;
64157;SDS011;50449;51.528;5.076;2023-05-24T08:52:59;54.00;;;50.28;;
64157;SDS011;50449;51.528;5.076;2023-05-24T08:55:31;52.40;;;49.50;;
64157;SDS011;50449;51.528;5.076;2023-05-24T08:57:57;51.92;;;49.22;;
64157;SDS011;50449;51.528;5.076;2023-05-24T09:00:24;52.42;;;49.63;;
64157;SDS011;50449;51.528;5.076;2023-05-24T09:02:50;53.72;;;50.58;;
64157;SDS011;50449;51.528;5.076;2023-05-24T09:05:17;53.70;;;50.03;;
64157;SDS011;50449;51.528;5.076;2023-05-24T09:07:45;54.45;;;51.00;;
64157;SDS011;50449;51.528;5.076;2023-05-24T09:10:13;53.75;;;50.58;;
64157;SDS011;50449;51.528;5.076;2023-05-24T09:12:39;55.60;;;52.28;;
64157;SDS011;50449;51.528;5.076;2023-05-24T09:15:10;53.75;;;50.85;;
64157;SDS011;50449;51.528;5.076;2023-05-24T09:17:36;57.42;;;53.80;;
64157;SDS011;50449;51.528;5.076;2023-05-24T09:20:02;54.63;;;51.28;;
64157;SDS011;50449;51.528;5.076;2023-05-24T09:22:30;53.58;;;50.78;;
64157;SDS011;50449;51.528;5.076;2023-05-24T09:25:00;56.20;;;53.10;;
64157;SDS011;50449;51.528;5.076;2023-05-24T09:27:27;57.95;;;54.50;;
64157;SDS011;50449;51.528;5.076;2023-05-24T09:29:53;55.53;;;51.90;;
64157;SDS011;50449;51.528;5.076;2023-05-24T09:32:20;58.45;;;54.47;;
64157;SDS011;50449;51.528;5.076;2023-05-24T09:34:49;59.00;;;54.90;;
64157;SDS011;50449;51.528;5.076;2023-05-24T09:37:19;55.58;;;52.47;;
64157;SDS011;50449;51.528;5.076;2023-05-24T09:39:47;56.78;;;53.80;;
64157;SDS011;50449;51.528;5.076;2023-05-24T09:42:14;57.55;;;53.38;;
64157;SDS011;50449;51.528;5.076;2023-05-24T09:44:41;58.50;;;55.33;;
64157;SDS011;50449;51.528;5.076;2023-05-24T09:47:07;57.85;;;53.67;;
64157;SDS011;50449;51.528;5.076;2023-05-24T09:49:35;60.67;;;56.65;;
64157;SDS011;50449;51.528;5.076;2023-05-24T09:52:01;61.45;;;57.67;;
64157;SDS011;50449;51.528;5.076;2023-05-24T09:54:27;62.08;;;58.05;;
64157;SDS011;50449;51.528;5.076;2023-05-24T09:56:52;61.60;;;57.63;;
64157;SDS011;50449;51.528;5.076;2023-05-24T09:59:18;61.00;;;57.90;;
64157;SDS011;50449;51.528;5.076;2023-05-24T10:01:44;60.22;;;57.05;;
64157;SDS011;50449;51.528;5.076;2023-05-24T10:04:10;61.67;;;58.17;;
64157;SDS011;50449;51.528;5.076;2023-05-24T10:06:36;62.25;;;59.05;;
64157;SDS011;50449;51.528;5.076;2023-05-24T10:09:03;61.38;;;57.88;;
64157;SDS011;50449;51.528;5.076;2023-05-24T10:11:35;64.43;;;60.50;;
64157;SDS011;50449;51.528;5.076;2023-05-24T10:14:03;65.20;;;61.60;;
64157;SDS011;50449;51.528;5.076;2023-05-24T10:16:29;59.70;;;56.45;;
64157;SDS011;50449;51.528;5.076;2023-05-24T10:18:55;63.30;;;59.72;;
64157;SDS011;50449;51.528;5.076;2023-05-24T10:21:20;62.83;;;59.38;;
64157;SDS011;50449;51.528;5.076;2023-05-24T10:23:50;65.03;;;61.07;;
64157;SDS011;50449;51.528;5.076;2023-05-24T10:26:19;63.90;;;60.58;;
64157;SDS011;50449;51.528;5.076;2023-05-24T10:28:47;62.25;;;59.33;;
64157;SDS011;50449;51.528;5.076;2023-05-24T10:31:27;64.82;;;61.40;;
64157;SDS011;50449;51.528;5.076;2023-05-24T10:33:57;64.20;;;60.85;;
64157;SDS011;50449;51.528;5.076;2023-05-24T10:36:24;66.20;;;62.75;;
64157;SDS011;50449;51.528;5.076;2023-05-24T10:38:50;66.53;;;63.03;;
64157;SDS011;50449;51.528;5.076;2023-05-24T10:41:17;67.22;;;63.28;;
64157;SDS011;50449;51.528;5.076;2023-05-24T10:43:46;64.30;;;60.53;;
64157;SDS011;50449;51.528;5.076;2023-05-24T10:46:13;62.05;;;58.80;;
64157;SDS011;50449;51.528;5.076;2023-05-24T10:48:42;66.32;;;62.50;;
64157;SDS011;50449;51.528;5.076;2023-05-24T10:54:14;67.93;;;63.42;;
64157;SDS011;50449;51.528;5.076;2023-05-24T10:56:44;64.15;;;60.80;;
64157;SDS011;50449;51.528;5.076;2023-05-24T11:02:02;64.95;;;61.55;;
64157;SDS011;50449;51.528;5.076;2023-05-24T11:04:32;66.97;;;63.30;;
64157;SDS011;50449;51.528;5.076;2023-05-24T11:07:01;65.95;;;62.28;;
64157;SDS011;50449;51.528;5.076;2023-05-24T11:12:17;65.60;;;61.60;;
64157;SDS011;50449;51.528;5.076;2023-05-24T11:14:49;70.22;;;65.07;;
64157;SDS011;50449;51.528;5.076;2023-05-24T11:17:17;65.38;;;61.55;;
64157;SDS011;50449;51.528;5.076;2023-05-24T11:19:46;68.10;;;64.22;;
64157;SDS011;50449;51.528;5.076;2023-05-24T11:22:16;66.30;;;63.08;;
64157;SDS011;50449;51.528;5.076;2023-05-24T11:24:44;67.28;;;63.95;;
64157;SDS011;50449;51.528;5.076;2023-05-24T11:27:10;74.60;;;68.43;;
64157;SDS011;50449;51.528;5.076;2023-05-24T11:29:43;70.13;;;66.32;;
64157;SDS011;50449;51.528;5.076;2023-05-24T11:32:14;71.53;;;66.95;;
64157;SDS011;50449;51.528;5.076;2023-05-24T11:34:47;71.63;;;67.15;;
64157;SDS011;50449;51.528;5.076;2023-05-24T11:37:13;72.75;;;65.47;;
64157;SDS011;50449;51.528;5.076;2023-05-24T11:39:39;67.30;;;63.92;;
64157;SDS011;50449;51.528;5.076;2023-05-24T11:42:06;65.72;;;62.08;;
64157;SDS011;50449;51.528;5.076;2023-05-24T11:44:33;69.18;;;65.28;;
64157;SDS011;50449;51.528;5.076;2023-05-24T11:47:03;68.53;;;65.25;;
64157;SDS011;50449;51.528;5.076;2023-05-24T11:49:30;67.15;;;63.88;;
64157;SDS011;50449;51.528;5.076;2023-05-24T11:51:56;68.53;;;64.93;;
64157;SDS011;50449;51.528;5.076;2023-05-24T11:54:26;68.53;;;64.80;;
64157;SDS011;50449;51.528;5.076;2023-05-24T11:56:52;70.43;;;66.88;;
64157;SDS011;50449;51.528;5.076;2023-05-24T11:59:22;70.00;;;66.28;;
64157;SDS011;50449;51.528;5.076;2023-05-24T12:01:50;69.63;;;66.18;;
64157;SDS011;50449;51.528;5.076;2023-05-24T12:04:22;69.95;;;66.00;;
64157;SDS011;50449;51.528;5.076;2023-05-24T12:06:47;72.15;;;67.95;;
64157;SDS011;50449;51.528;5.076;2023-05-24T12:09:13;70.78;;;66.68;;
64157;SDS011;50449;51.528;5.076;2023-05-24T12:14:05;68.63;;;65.13;;
64157;SDS011;50449;51.528;5.076;2023-05-24T12:16:32;71.78;;;68.03;;
64157;SDS011;50449;51.528;5.076;2023-05-24T12:18:57;70.50;;;66.68;;
64157;SDS011;50449;51.528;5.076;2023-05-24T12:21:24;69.93;;;66.30;;
64157;SDS011;50449;51.528;5.076;2023-05-24T12:23:49;69.35;;;65.78;;
64157;SDS011;50449;51.528;5.076;2023-05-24T12:26:16;72.85;;;68.50;;
64157;SDS011;50449;51.528;5.076;2023-05-24T12:28:46;71.90;;;67.85;;
64157;SDS011;50449;51.528;5.076;2023-05-24T12:31:17;72.00;;;67.57;;
64157;SDS011;50449;51.528;5.076;2023-05-24T12:33:43;70.97;;;67.22;;
64157;SDS011;50449;51.528;5.076;2023-05-24T12:36:08;69.32;;;65.32;;
64157;SDS011;50449;51.528;5.076;2023-05-24T12:38:34;68.47;;;65.18;;
64157;SDS011;50449;51.528;5.076;2023-05-24T12:41:00;68.97;;;65.57;;
64157;SDS011;50449;51.528;5.076;2023-05-24T12:43:25;70.32;;;66.95;;
64157;SDS011;50449;51.528;5.076;2023-05-24T12:45:50;70.50;;;66.72;;
64157;SDS011;50449;51.528;5.076;2023-05-24T12:48:16;71.10;;;66.65;;
64157;SDS011;50449;51.528;5.076;2023-05-24T12:50:42;74.05;;;70.25;;
64157;SDS011;50449;51.528;5.076;2023-05-24T12:53:07;72.40;;;68.15;;
64157;SDS011;50449;51.528;5.076;2023-05-24T12:55:33;71.05;;;67.55;;
64157;SDS011;50449;51.528;5.076;2023-05-24T12:57:58;70.40;;;66.80;;
64157;SDS011;50449;51.528;5.076;2023-05-24T13:00:26;72.03;;;68.33;;
64157;SDS011;50449;51.528;5.076;2023-05-24T13:02:56;71.20;;;67.40;;
64157;SDS011;50449;51.528;5.076;2023-05-24T13:05:26;73.70;;;68.70;;
64157;SDS011;50449;51.528;5.076;2023-05-24T13:07:53;71.38;;;67.00;;
64157;SDS011;50449;51.528;5.076;2023-05-24T13:10:20;73.20;;;68.93;;
64157;SDS011;50449;51.528;5.076;2023-05-24T13:12:47;72.22;;;68.40;;
64157;SDS011;50449;51.528;5.076;2023-05-24T13:15:12;69.78;;;66.13;;
64157;SDS011;50449;51.528;5.076;2023-05-24T13:17:40;73.60;;;69.95;;
64157;SDS011;50449;51.528;5.076;2023-05-24T13:20:07;72.78;;;68.60;;
64157;SDS011;50449;51.528;5.076;2023-05-24T13:22:35;71.53;;;67.63;;
64157;SDS011;50449;51.528;5.076;2023-05-24T13:25:02;72.18;;;68.55;;
64157;SDS011;50449;51.528;5.076;2023-05-24T13:27:28;73.72;;;69.60;;
64157;SDS011;50449;51.528;5.076;2023-05-24T13:29:54;74.13;;;70.15;;
64157;SDS011;50449;51.528;5.076;2023-05-24T13:32:20;73.85;;;69.90;;
64157;SDS011;50449;51.528;5.076;2023-05-24T13:34:46;74.78;;;70.65;;
64157;SDS011;50449;51.528;5.076;2023-05-24T13:37:11;72.82;;;68.88;;
64157;SDS011;50449;51.528;5.076;2023-05-24T13:39:37;73.90;;;70.18;;
64157;SDS011;50449;51.528;5.076;2023-05-24T13:42:03;73.75;;;69.80;;
64157;SDS011;50449;51.528;5.076;2023-05-24T13:44:29;73.30;;;69.20;;
64157;SDS011;50449;51.528;5.076;2023-05-24T13:46:56;72.53;;;68.35;;
64157;SDS011;50449;51.528;5.076;2023-05-24T13:49:22;69.05;;;65.65;;
64157;SDS011;50449;51.528;5.076;2023-05-24T13:51:48;75.50;;;70.95;;
64157;SDS011;50449;51.528;5.076;2023-05-24T13:54:13;74.28;;;70.50;;
64157;SDS011;50449;51.528;5.076;2023-05-24T13:56:40;74.18;;;69.85;;
64157;SDS011;50449;51.528;5.076;2023-05-24T13:59:08;73.65;;;69.65;;
64157;SDS011;50449;51.528;5.076;2023-05-24T14:01:33;74.35;;;70.18;;
64157;SDS011;50449;51.528;5.076;2023-05-24T14:04:03;73.60;;;69.78;;
64157;SDS011;50449;51.528;5.076;2023-05-24T14:06:29;75.35;;;71.45;;
64157;SDS011;50449;51.528;5.076;2023-05-24T14:08:55;76.20;;;72.20;;
64157;SDS011;50449;51.528;5.076;2023-05-24T14:11:21;75.68;;;71.65;;
64157;SDS011;50449;51.528;5.076;2023-05-24T14:13:48;80.60;;;76.35;;
64157;SDS011;50449;51.528;5.076;2023-05-24T14:16:14;73.75;;;70.38;;
64157;SDS011;50449;51.528;5.076;2023-05-24T14:18:39;76.03;;;72.50;;
64157;SDS011;50449;51.528;5.076;2023-05-24T14:21:05;75.53;;;71.57;;
64157;SDS011;50449;51.528;5.076;2023-05-24T14:23:30;76.15;;;72.22;;
64157;SDS011;50449;51.528;5.076;2023-05-24T14:25:57;76.50;;;72.60;;
64157;SDS011;50449;51.528;5.076;2023-05-24T14:28:23;77.68;;;73.22;;
64157;SDS011;50449;51.528;5.076;2023-05-24T14:30:48;78.18;;;74.00;;
64157;SDS011;50449;51.528;5.076;2023-05-24T14:33:14;76.82;;;72.28;;
64157;SDS011;50449;51.528;5.076;2023-05-24T14:35:40;75.45;;;71.70;;
64157;SDS011;50449;51.528;5.076;2023-05-24T14:38:06;75.45;;;71.28;;